createdAt,value
2022-08-08T00:01:10.262Z,101938.56
2022-08-08T00:03:48.300Z,101940.63
2022-08-08T00:06:33.900Z,101940.00
2022-08-08T00:09:11.983Z,101941.28
2022-08-08T00:12:09.396Z,101940.72
2022-08-08T00:14:54.665Z,101934.09
2022-08-08T00:18:01.952Z,101938.19
2022-08-08T00:20:32.432Z,101952.16
2022-08-08T00:23:06.258Z,101952.56
2022-08-08T00:25:44.885Z,101955.78
2022-08-08T00:28:35.386Z,101948.31
2022-08-08T00:32:28.252Z,101951.88
2022-08-08T00:34:20.316Z,101952.56
2022-08-08T00:37:03.366Z,101953.84
2022-08-08T00:41:09.056Z,101947.03
2022-08-08T00:43:19.592Z,101953.66
2022-08-08T00:46:05.871Z,101954.28
2022-08-08T00:49:21.863Z,101962.22
2022-08-08T00:52:03.830Z,101962.00
2022-08-08T00:54:53.200Z,101958.97
2022-08-08T00:57:57.158Z,101978.16
2022-08-08T01:00:31.180Z,101972.69
2022-08-08T01:04:02.425Z,101958.19
2022-08-08T01:07:06.235Z,101955.72
2022-08-08T01:10:20.931Z,101965.72
2022-08-08T01:13:43.343Z,101962.16
2022-08-08T01:16:48.776Z,101939.91
2022-08-08T01:20:02.037Z,101930.81
2022-08-08T01:23:03.089Z,101925.16
2022-08-08T01:26:11.744Z,101925.41
2022-08-08T01:29:23.982Z,101925.41
2022-08-08T01:32:23.206Z,101935.75
2022-08-08T01:35:38.428Z,101939.28
2022-08-08T01:38:40.520Z,101925.94
2022-08-08T01:41:19.179Z,101934.94
2022-08-08T01:43:53.405Z,101929.53
2022-08-08T01:46:52.505Z,101907.75
2022-08-08T01:49:38.724Z,101913.94
2022-08-08T01:53:01.545Z,101917.78
2022-08-08T01:56:28.838Z,101919.59
2022-08-08T01:58:38.296Z,101913.72
2022-08-08T02:01:17.950Z,101919.22
2022-08-08T02:04:01.827Z,101914.47
2022-08-08T02:06:49.060Z,101908.69
2022-08-08T02:10:04.095Z,101913.16
2022-08-08T02:12:38.299Z,101897.06
2022-08-08T02:15:12.548Z,101901.31
2022-08-08T02:17:47.676Z,101904.00
2022-08-08T02:21:01.822Z,101909.00
2022-08-08T02:23:22.849Z,101902.53
2022-08-08T02:26:02.845Z,101904.00
2022-08-08T02:28:48.543Z,101906.91
2022-08-08T02:31:57.916Z,101911.47
2022-08-08T02:35:07.636Z,101912.91
2022-08-08T02:37:56.922Z,101913.91
2022-08-08T02:40:39.167Z,101908.78
2022-08-08T02:44:42.641Z,101920.19
2022-08-08T02:46:44.961Z,101911.63
2022-08-08T02:49:51.983Z,101914.50
2022-08-08T02:52:50.857Z,101903.09
2022-08-08T02:55:57.714Z,101909.06
2022-08-08T02:59:05.919Z,101908.25
2022-08-08T03:02:30.085Z,101906.59
2022-08-08T03:05:44.816Z,101903.16
2022-08-08T03:08:51.815Z,101905.00
2022-08-08T03:12:03.044Z,101907.41
2022-08-08T03:15:59.454Z,101902.41
2022-08-08T03:17:59.841Z,101914.88
2022-08-08T03:20:47.066Z,101914.25
2022-08-08T03:23:22.351Z,101912.84
2022-08-08T03:25:52.502Z,101916.75
2022-08-08T03:28:27.697Z,101916.44
2022-08-08T03:31:22.419Z,101920.25
2022-08-08T03:33:55.430Z,101914.50
2022-08-08T03:36:30.313Z,101915.97
2022-08-08T03:39:14.541Z,101910.69
2022-08-08T03:42:26.668Z,101912.03
2022-08-08T03:44:34.541Z,101913.06
2022-08-08T03:47:19.259Z,101919.38
2022-08-08T03:50:00.163Z,101913.22
2022-08-08T03:52:31.336Z,101919.91
2022-08-08T03:55:10.590Z,101918.94
2022-08-08T03:58:35.298Z,101930.31
2022-08-08T04:00:56.480Z,101929.59
2022-08-08T04:03:25.961Z,101928.25
2022-08-08T04:06:13.504Z,101935.78
2022-08-08T04:08:41.887Z,101927.00
2022-08-08T04:11:17.290Z,101935.63
2022-08-08T04:14:03.943Z,101932.84
2022-08-08T04:16:40.543Z,101936.47
2022-08-08T04:19:22.937Z,101939.84
2022-08-08T04:21:52.230Z,101940.66
2022-08-08T04:24:29.450Z,101938.94
2022-08-08T04:27:00.789Z,101928.56
2022-08-08T04:29:36.864Z,101927.59
2022-08-08T04:32:06.666Z,101922.06
2022-08-08T04:34:55.314Z,101928.63
2022-08-08T04:37:31.634Z,101931.69
2022-08-08T04:40:06.413Z,101936.25
2022-08-08T04:42:37.516Z,101928.41
2022-08-08T04:45:15.338Z,101932.25
2022-08-08T04:47:47.145Z,101931.81
2022-08-08T04:50:24.796Z,101936.75
2022-08-08T04:53:01.175Z,101938.44
2022-08-08T04:55:47.789Z,101941.59
2022-08-08T04:58:22.678Z,101942.25
2022-08-08T05:00:51.720Z,101932.28
2022-08-08T05:04:10.627Z,101925.28
2022-08-08T05:06:13.151Z,101922.53
2022-08-08T05:08:42.364Z,101923.09
2022-08-08T05:11:18.638Z,101922.13
2022-08-08T05:13:54.903Z,101934.50
2022-08-08T05:16:52.684Z,101937.94
2022-08-08T05:20:10.733Z,101944.72
2022-08-08T05:22:03.429Z,101948.47
2022-08-08T05:24:32.329Z,101946.06
2022-08-08T05:27:00.363Z,101957.88
2022-08-08T05:29:29.544Z,101949.84
2022-08-08T05:32:04.690Z,101945.13
2022-08-08T05:34:36.924Z,101949.50
2022-08-08T05:37:15.769Z,101956.91
2022-08-08T05:39:47.539Z,101954.56
2022-08-08T05:42:16.083Z,101958.69
2022-08-08T05:44:51.664Z,101959.09
2022-08-08T05:47:22.665Z,101955.78
2022-08-08T05:49:54.028Z,101955.94
2022-08-08T05:52:27.344Z,101959.09
2022-08-08T05:55:07.557Z,101959.63
2022-08-08T05:58:05.255Z,101958.97
2022-08-08T06:00:34.102Z,101965.31
2022-08-08T06:03:17.559Z,101976.41
2022-08-08T06:05:59.160Z,101979.44
2022-08-08T06:08:34.904Z,101983.91
2022-08-08T06:11:05.637Z,102015.91
2022-08-08T06:13:36.109Z,102030.53
2022-08-08T06:16:16.615Z,102088.97
2022-08-08T06:18:51.836Z,102091.31
2022-08-08T06:21:32.812Z,102118.69
2022-08-08T06:24:14.112Z,102132.44
2022-08-08T06:26:55.270Z,102135.38
2022-08-08T06:29:49.409Z,102151.38
2022-08-08T06:32:29.645Z,102177.41
2022-08-08T06:36:04.548Z,102169.16
2022-08-08T06:37:55.949Z,102237.72
2022-08-08T06:40:26.997Z,102250.06
2022-08-08T06:42:56.943Z,102265.84
2022-08-08T06:45:25.698Z,102273.53
2022-08-08T06:48:00.722Z,102293.69
2022-08-08T06:50:33.586Z,102327.53
2022-08-08T06:53:14.337Z,102343.19
2022-08-08T06:56:00.777Z,102357.34
2022-08-08T06:58:33.665Z,102364.34
2022-08-08T07:01:24.577Z,102394.69
2022-08-08T07:04:39.453Z,102398.94
2022-08-08T07:06:51.619Z,102389.50
2022-08-08T07:09:21.929Z,102395.31
2022-08-08T07:11:58.473Z,102399.56
2022-08-08T07:14:28.522Z,102405.25
2022-08-08T07:17:09.134Z,102390.41
2022-08-08T07:19:44.506Z,102407.09
2022-08-08T07:22:18.737Z,102389.81
2022-08-08T07:24:53.153Z,102398.13
2022-08-08T07:27:35.231Z,102403.97
2022-08-08T07:30:21.196Z,102390.88
2022-08-08T07:32:59.562Z,102388.03
2022-08-08T07:35:31.018Z,102388.00
2022-08-08T07:38:10.186Z,102401.50
2022-08-08T07:40:40.344Z,102402.38
2022-08-08T07:43:13.078Z,102415.84
2022-08-08T07:46:05.385Z,102427.25
2022-08-08T07:48:31.791Z,102420.69
2022-08-08T07:51:04.268Z,102408.38
2022-08-08T07:54:00.623Z,102419.69
2022-08-08T07:56:36.278Z,102412.50
2022-08-08T07:59:10.650Z,102413.09
2022-08-08T08:02:36.762Z,102423.13
2022-08-08T08:04:40.059Z,102432.66
2022-08-08T08:07:11.920Z,102439.34
2022-08-08T08:09:42.079Z,102440.91
2022-08-08T08:12:31.971Z,102441.22
2022-08-08T08:15:05.002Z,102439.81
2022-08-08T08:17:36.379Z,102448.56
2022-08-08T08:20:16.578Z,102443.91
2022-08-08T08:22:47.463Z,102437.47
2022-08-08T08:25:16.708Z,102437.16
2022-08-08T08:27:47.329Z,102438.94
2022-08-08T08:30:16.003Z,102443.66
2022-08-08T08:32:51.202Z,102441.50
2022-08-08T08:35:21.771Z,102436.69
2022-08-08T08:38:15.743Z,102441.41
2022-08-08T08:40:48.580Z,102447.09
2022-08-08T08:43:18.584Z,102450.38
2022-08-08T08:45:48.895Z,102451.44
2022-08-08T08:48:19.841Z,102449.88
2022-08-08T08:50:51.970Z,102448.84
2022-08-08T08:53:34.284Z,102451.50
2022-08-08T08:56:12.988Z,102462.00
2022-08-08T08:58:46.999Z,102453.38
2022-08-08T09:01:20.343Z,102458.28
2022-08-08T09:03:51.478Z,102456.41
2022-08-08T09:06:28.789Z,102460.50
2022-08-08T09:09:07.114Z,102454.03
2022-08-08T09:11:47.688Z,102443.22
2022-08-08T09:14:26.807Z,102454.75
2022-08-08T09:16:55.479Z,102460.94
2022-08-08T09:21:59.700Z,102462.53
2022-08-08T09:22:12.279Z,102456.88
2022-08-08T09:24:42.815Z,102454.56
2022-08-08T09:27:20.440Z,102444.81
2022-08-08T09:29:53.449Z,102441.16
2022-08-08T09:32:37.368Z,102434.28
2022-08-08T09:35:09.151Z,102446.16
2022-08-08T09:37:58.742Z,102436.41
2022-08-08T09:40:46.567Z,102433.78
2022-08-08T09:43:40.601Z,102436.22
2022-08-08T09:46:25.658Z,102426.28
2022-08-08T09:49:18.117Z,102390.50
2022-08-08T09:52:06.333Z,102385.47
2022-08-08T09:54:42.378Z,102388.00
2022-08-08T09:57:19.006Z,102373.00
2022-08-08T10:00:14.815Z,102390.09
2022-08-08T10:02:41.854Z,102381.81
2022-08-08T10:05:22.907Z,102389.38
2022-08-08T10:08:00.491Z,102406.78
2022-08-08T10:10:31.886Z,102404.16
2022-08-08T10:13:14.111Z,102406.06
2022-08-08T10:15:59.414Z,102407.22
2022-08-08T10:18:30.716Z,102396.56
2022-08-08T10:21:23.083Z,102388.84
2022-08-08T10:23:57.764Z,102394.69
2022-08-08T10:26:58.643Z,102376.69
2022-08-08T10:29:24.903Z,102379.28
2022-08-08T10:32:16.335Z,102377.63
2022-08-08T10:34:58.602Z,102384.00
2022-08-08T10:37:30.533Z,102379.47
2022-08-08T10:40:02.464Z,102406.06
2022-08-08T10:42:37.680Z,102418.63
2022-08-08T10:45:15.951Z,102418.84
2022-08-08T10:47:53.611Z,102424.66
2022-08-08T10:50:24.621Z,102431.31
2022-08-08T10:53:03.555Z,102422.56
2022-08-08T10:55:40.655Z,102432.50
2022-08-08T10:58:11.685Z,102418.94
2022-08-08T11:00:53.455Z,102410.13
2022-08-08T11:04:00.380Z,102429.84
2022-08-08T11:06:34.133Z,102435.03
2022-08-08T11:09:15.164Z,102440.88
2022-08-08T11:12:06.382Z,102451.34
2022-08-08T11:14:35.883Z,102448.59
2022-08-08T11:17:07.731Z,102456.09
2022-08-08T11:19:46.407Z,102454.91
2022-08-08T11:22:16.386Z,102452.50
2022-08-08T11:24:47.649Z,102453.00
2022-08-08T11:27:20.147Z,102449.66
2022-08-08T11:30:20.035Z,102459.88
2022-08-08T11:32:47.475Z,102455.25
2022-08-08T11:35:27.226Z,102467.03
2022-08-08T11:38:35.148Z,102465.47
2022-08-08T11:40:53.288Z,102469.13
2022-08-08T11:43:25.861Z,102463.84
2022-08-08T11:46:14.366Z,102466.19
2022-08-08T11:48:48.232Z,102473.06
2022-08-08T11:51:30.468Z,102463.44
2022-08-08T11:54:27.381Z,102469.94
2022-08-08T11:56:56.697Z,102458.41
2022-08-08T11:59:58.386Z,102471.78
2022-08-08T12:02:32.149Z,102459.00
2022-08-08T12:05:07.349Z,102475.38
2022-08-08T12:07:51.180Z,102480.22
2022-08-08T12:10:21.386Z,102474.53
2022-08-08T12:12:51.870Z,102485.59
2022-08-08T12:15:30.686Z,102475.41
2022-08-08T12:18:21.434Z,102474.53
2022-08-08T12:20:56.583Z,102473.00
2022-08-08T12:23:43.905Z,102476.84
2022-08-08T12:26:27.969Z,102477.56
2022-08-08T12:29:18.388Z,102477.25
2022-08-08T12:31:53.510Z,102476.38
2022-08-08T12:34:52.121Z,102471.50
2022-08-08T12:37:41.284Z,102474.84
2022-08-08T12:40:24.257Z,102478.69
2022-08-08T12:42:55.590Z,102470.53
2022-08-08T12:45:57.829Z,102476.81
2022-08-08T12:48:36.683Z,102473.19
2022-08-08T12:51:07.807Z,102471.38
2022-08-08T12:53:59.182Z,102456.44
2022-08-08T12:56:34.753Z,102465.53
2022-08-08T12:59:02.872Z,102468.31
2022-08-08T13:01:37.378Z,102459.91
2022-08-08T13:04:18.857Z,102456.88
2022-08-08T13:07:16.818Z,102453.31
2022-08-08T13:10:10.818Z,102457.41
2022-08-08T13:12:47.008Z,102451.84
2022-08-08T13:15:19.592Z,102444.00
2022-08-08T13:18:08.879Z,102452.13
2022-08-08T13:20:45.168Z,102462.56
2022-08-08T13:23:36.603Z,102459.31
2022-08-08T13:26:15.690Z,102463.66
2022-08-08T13:28:45.730Z,102461.88
2022-08-08T13:31:17.241Z,102465.53
2022-08-08T13:33:49.692Z,102459.78
2022-08-08T13:36:25.759Z,102462.78
2022-08-08T13:38:54.495Z,102460.47
2022-08-08T13:41:24.341Z,102463.81
2022-08-08T13:43:57.793Z,102462.50
2022-08-08T13:46:26.686Z,102462.03
2022-08-08T13:49:11.556Z,102459.19
2022-08-08T13:51:57.075Z,102456.81
2022-08-08T13:54:31.211Z,102459.47
2022-08-08T13:57:12.411Z,102464.47
2022-08-08T13:59:48.371Z,102468.50
2022-08-08T14:02:20.490Z,102463.97
2022-08-08T14:04:57.355Z,102459.63
2022-08-08T14:07:35.644Z,102457.09
2022-08-08T14:10:17.262Z,102457.22
2022-08-08T14:12:48.541Z,102454.34
2022-08-08T14:15:31.616Z,102435.31
2022-08-08T14:18:34.983Z,102441.56
2022-08-08T14:21:02.830Z,102432.00
2022-08-08T14:24:04.752Z,102437.31
2022-08-08T14:26:29.311Z,102449.91
2022-08-08T14:29:01.450Z,102425.97
2022-08-08T14:31:36.795Z,102425.25
2022-08-08T14:34:23.239Z,102413.50
2022-08-08T14:36:55.723Z,102411.00
2022-08-08T14:39:24.583Z,102418.22
2022-08-08T14:42:03.413Z,102408.59
2022-08-08T14:44:39.561Z,102382.75
2022-08-08T14:47:20.958Z,102398.81
2022-08-08T14:50:02.536Z,102408.53
2022-08-08T14:52:44.333Z,102424.94
2022-08-08T14:55:16.435Z,102421.78
2022-08-08T14:58:06.553Z,102393.41
2022-08-08T15:00:42.190Z,102393.19
2022-08-08T15:03:15.706Z,102417.28
2022-08-08T15:05:53.682Z,102427.06
2022-08-08T15:08:35.569Z,102427.03
2022-08-08T15:11:09.384Z,102405.78
2022-08-08T15:14:00.784Z,102403.06
2022-08-08T15:16:34.436Z,102400.84
2022-08-08T15:19:03.350Z,102393.75
2022-08-08T15:21:31.517Z,102384.44
2022-08-08T15:23:59.780Z,102390.25
2022-08-08T15:26:28.834Z,102401.63
2022-08-08T15:28:57.753Z,102438.25
2022-08-08T15:32:03.539Z,102417.44
2022-08-08T15:34:28.855Z,102438.34
2022-08-08T15:36:58.104Z,102429.38
2022-08-08T15:39:26.022Z,102433.81
2022-08-08T15:41:54.823Z,102453.00
2022-08-08T15:44:22.683Z,102449.47
2022-08-08T15:46:51.274Z,102447.72
2022-08-08T15:49:22.371Z,102449.25
2022-08-08T15:51:54.599Z,102451.34
2022-08-08T15:54:38.921Z,102440.22
2022-08-08T15:57:08.851Z,102452.38
2022-08-08T16:00:10.970Z,102445.88
2022-08-08T16:02:31.183Z,102437.22
2022-08-08T16:05:01.526Z,102444.41
2022-08-08T16:07:39.207Z,102438.44
2022-08-08T16:13:03.267Z,102452.63
2022-08-08T16:13:35.015Z,102453.00
2022-08-08T16:15:57.534Z,102464.94
2022-08-08T16:18:27.974Z,102459.66
2022-08-08T16:21:00.494Z,102462.81
2022-08-08T16:23:31.704Z,102457.16
2022-08-08T16:26:03.953Z,102454.69
2022-08-08T16:28:35.952Z,102465.13
2022-08-08T16:31:07.786Z,102461.66
2022-08-08T16:33:38.410Z,102453.94
2022-08-08T16:36:09.526Z,102455.44
2022-08-08T16:38:40.702Z,102446.38
2022-08-08T16:41:20.502Z,102455.41
2022-08-08T16:43:51.652Z,102464.31
2022-08-08T16:46:37.814Z,102457.91
2022-08-08T16:49:09.501Z,102470.97
2022-08-08T16:55:05.811Z,102454.47
2022-08-08T16:55:23.772Z,102433.94
2022-08-08T16:57:23.451Z,102414.75
2022-08-08T17:00:08.795Z,102407.97
2022-08-08T17:02:44.299Z,102413.72
2022-08-08T17:05:14.015Z,102394.03
2022-08-08T17:07:46.845Z,102390.41
2022-08-08T17:10:19.495Z,102393.09
2022-08-08T17:12:53.146Z,102405.22
2022-08-08T17:15:22.922Z,102411.03
2022-08-08T17:18:03.461Z,102405.84
2022-08-08T17:20:32.560Z,102407.06
2022-08-08T17:23:18.410Z,102406.44
2022-08-08T17:25:53.464Z,102386.72
2022-08-08T17:28:22.692Z,102380.50
2022-08-08T17:31:02.761Z,102380.53
2022-08-08T17:34:35.831Z,102384.06
2022-08-08T17:36:38.647Z,102368.03
2022-08-08T17:40:05.173Z,102369.50
2022-08-08T17:42:18.177Z,102378.97
2022-08-08T17:44:46.415Z,102388.88
2022-08-08T17:47:23.662Z,102405.50
2022-08-08T17:50:06.073Z,102419.31
2022-08-08T17:52:35.462Z,102420.44
2022-08-08T17:56:03.788Z,102437.44
2022-08-08T17:57:55.868Z,102451.94
2022-08-08T18:00:30.825Z,102467.34
2022-08-08T18:03:07.473Z,102474.25
2022-08-08T18:05:48.610Z,102469.63
2022-08-08T18:08:24.434Z,102469.34
2022-08-08T18:11:07.912Z,102466.16
2022-08-08T18:13:41.389Z,102470.81
2022-08-08T18:16:10.984Z,102469.75
2022-08-08T18:18:45.569Z,102469.25
2022-08-08T18:21:35.120Z,102468.88
2022-08-08T18:24:17.287Z,102485.84
2022-08-08T18:26:54.845Z,102475.53
2022-08-08T18:29:29.434Z,102471.53
2022-08-08T18:31:58.382Z,102475.19
2022-08-08T18:34:27.776Z,102471.38
2022-08-08T18:36:56.346Z,102461.31
2022-08-08T18:39:28.080Z,102456.75
2022-08-08T18:42:02.850Z,102441.66
2022-08-08T18:44:32.807Z,102447.41
2022-08-08T18:47:02.862Z,102443.53
2022-08-08T18:49:32.628Z,102442.34
2022-08-08T18:52:18.172Z,102432.31
2022-08-08T18:55:00.897Z,102428.78
2022-08-08T18:57:36.774Z,102423.56
2022-08-08T19:00:13.607Z,102429.09
2022-08-08T19:02:56.187Z,102413.41
2022-08-08T19:05:32.054Z,102427.00
2022-08-08T19:08:10.185Z,102408.44
2022-08-08T19:10:54.508Z,102396.34
2022-08-08T19:13:38.326Z,102385.72
2022-08-08T19:16:19.315Z,102405.38
2022-08-08T19:18:53.037Z,102390.13
2022-08-08T19:21:32.798Z,102399.53
2022-08-08T19:24:05.531Z,102375.69
2022-08-08T19:26:34.607Z,102380.16
2022-08-08T19:29:04.520Z,102388.91
2022-08-08T19:31:35.290Z,102386.09
2022-08-08T19:34:35.539Z,102392.47
2022-08-08T19:36:58.698Z,102388.25
2022-08-08T19:39:30.891Z,102383.06
2022-08-08T19:42:03.889Z,102383.91
2022-08-08T19:44:46.404Z,102374.44
2022-08-08T19:47:23.463Z,102388.97
2022-08-08T19:50:00.253Z,102374.78
2022-08-08T19:52:35.493Z,102348.38
2022-08-08T19:55:08.772Z,102343.38
2022-08-08T19:57:37.906Z,102351.94
2022-08-08T20:00:11.460Z,102345.38
2022-08-08T20:02:57.742Z,102336.09
2022-08-08T20:06:16.401Z,102326.28
2022-08-08T20:08:28.870Z,102309.25
2022-08-08T20:10:59.671Z,102307.13
2022-08-08T20:14:32.729Z,102277.88
2022-08-08T20:16:17.577Z,102275.75
2022-08-08T20:18:52.498Z,102320.63
2022-08-08T20:21:24.998Z,102314.94
2022-08-08T20:23:57.423Z,102328.56
2022-08-08T20:26:33.746Z,102328.00
2022-08-08T20:29:02.483Z,102306.34
2022-08-08T20:32:02.568Z,102286.69
2022-08-08T20:34:29.231Z,102290.78
2022-08-08T20:37:00.151Z,102291.72
2022-08-08T20:39:39.251Z,102294.06
2022-08-08T20:42:16.708Z,102313.06
2022-08-08T20:44:44.554Z,102324.16
2022-08-08T20:47:15.631Z,102338.31
2022-08-08T20:49:51.002Z,102326.09
2022-08-08T20:52:25.524Z,102305.88
2022-08-08T20:54:53.366Z,102303.88
2022-08-08T20:57:21.615Z,102291.00
2022-08-08T20:59:49.524Z,102246.75
2022-08-08T21:02:25.357Z,102240.38
2022-08-08T21:04:53.846Z,102265.03
2022-08-08T21:07:46.939Z,102265.75
2022-08-08T21:10:13.449Z,102279.25
2022-08-08T21:12:44.578Z,102278.41
2022-08-08T21:15:16.605Z,102254.47
2022-08-08T21:18:03.955Z,102260.38
2022-08-08T21:20:34.456Z,102251.28
2022-08-08T21:23:02.854Z,102227.31
2022-08-08T21:25:32.914Z,102232.09
2022-08-08T21:28:16.083Z,102213.16
2022-08-08T21:30:49.495Z,102200.66
2022-08-08T21:33:19.340Z,102198.44
2022-08-08T21:36:14.586Z,102202.88
2022-08-08T21:38:34.937Z,102216.78
2022-08-08T21:41:02.710Z,102195.50
2022-08-08T21:43:34.821Z,102191.56
2022-08-08T21:48:04.262Z,102188.59
2022-08-08T21:48:54.958Z,102180.50
2022-08-08T21:54:18.013Z,102189.63
2022-08-08T21:54:32.732Z,102192.16
2022-08-08T21:57:02.709Z,102198.22
2022-08-08T22:00:02.599Z,102189.66
2022-08-08T22:02:19.415Z,102192.25
2022-08-08T22:04:58.596Z,102191.94
2022-08-08T22:07:39.478Z,102184.53
2022-08-08T22:10:09.910Z,102189.75
2022-08-08T22:12:46.929Z,102185.59
2022-08-08T22:15:15.007Z,102197.16
2022-08-08T22:17:45.699Z,102186.56
2022-08-08T22:20:23.662Z,102183.47
2022-08-08T22:22:56.307Z,102180.16
2022-08-08T22:25:24.925Z,102179.31
2022-08-08T22:28:04.054Z,102181.69
2022-08-08T22:30:33.585Z,102177.00
2022-08-08T22:33:01.847Z,102187.16
2022-08-08T22:36:04.386Z,102180.78
2022-08-08T22:38:19.593Z,102186.53
2022-08-08T22:40:49.649Z,102192.53
2022-08-08T22:43:18.258Z,102189.94
2022-08-08T22:45:46.673Z,102184.03
2022-08-08T22:48:21.785Z,102184.56
2022-08-08T22:50:51.730Z,102189.13
2022-08-08T22:54:27.774Z,102194.06
2022-08-08T22:56:07.951Z,102192.84
2022-08-08T22:58:35.771Z,102195.69
2022-08-08T23:01:16.789Z,102190.06
2022-08-08T23:03:56.716Z,102193.06
2022-08-08T23:06:26.786Z,102189.16
2022-08-08T23:08:58.874Z,102196.28
2022-08-08T23:12:17.971Z,102194.75
2022-08-08T23:14:17.731Z,102200.44
2022-08-08T23:16:57.461Z,102195.22
2022-08-08T23:19:27.963Z,102201.41
2022-08-08T23:22:02.173Z,102201.28
2022-08-08T23:24:36.615Z,102208.91
2022-08-08T23:27:05.593Z,102211.69
2022-08-08T23:29:34.110Z,102220.19
2022-08-08T23:32:04.373Z,102224.41
2022-08-08T23:34:33.050Z,102253.63
2022-08-08T23:37:03.576Z,102257.75
2022-08-08T23:39:41.933Z,102265.22
2022-08-08T23:42:17.723Z,102275.31
2022-08-08T23:44:49.533Z,102277.00
2022-08-08T23:49:06.341Z,102262.88
2022-08-08T23:50:07.691Z,102239.00
2022-08-08T23:52:44.301Z,102229.72
2022-08-08T23:55:22.496Z,102247.47
2022-08-08T23:57:52.997Z,102259.28
